Time;durP1;ratioP1;P1;durP2;ratioP2;P2;SDS_P1;SDS_P2;PMS_P1;PMS_P2;Temp;Humidity;BMP_temperature;BMP_pressure;BME280_temperature;BME280_humidity;BME280_pressure;Samples;Min_cycle;Max_cycle;Signal;HPM_P1;HPM_P2
2022/12/21 00:04:30;;;;;;;37.90;20.95;;;;;;;10.13;89.59;100992.53;4869391;29;20060;-96
2022/12/21 00:06:58;;;;;;;37.47;21.58;;;;;;;9.82;89.14;100947.00;4875533;29;20126;-96
2022/12/21 00:09:23;;;;;;;41.38;22.15;;;;;;;9.83;89.09;100957.47;4851679;29;20033;-96
2022/12/21 00:11:49;;;;;;;39.25;21.30;;;;;;;9.91;89.23;100962.50;4867620;29;20117;-96
2022/12/21 00:14:15;;;;;;;43.45;21.40;;;;;;;9.94;89.49;100968.56;4868509;29;20037;-96
2022/12/21 00:16:42;;;;;;;40.42;21.75;;;;;;;9.80;89.63;100946.19;4851789;29;20029;-96
2022/12/21 00:19:13;;;;;;;36.90;21.73;;;;;;;9.77;89.06;100943.66;4848139;29;20037;-96
2022/12/21 00:21:38;;;;;;;35.05;20.05;;;;;;;9.74;89.41;100936.69;4849650;29;20041;-96
2022/12/21 00:24:04;;;;;;;34.58;19.27;;;;;;;9.75;89.22;100938.44;4845486;29;20038;-96
2022/12/21 00:26:33;;;;;;;33.38;18.25;;;;;;;9.73;88.91;100936.75;4853397;29;20390;-96
2022/12/21 00:28:59;;;;;;;34.88;19.80;;;;;;;9.81;88.96;100954.06;4852166;29;20037;-95
2022/12/21 00:31:31;;;;;;;41.22;18.45;;;;;;;9.66;89.36;100938.75;4852191;29;20550;-96
2022/12/21 00:34:02;;;;;;;;;;;;;;;10.04;88.74;100981.44;4862307;29;20051;-95
2022/12/21 00:36:37;;;;;;;36.42;18.48;;;;;;;9.70;89.16;100958.84;4862660;29;19935;-96
2022/12/21 00:39:43;;;;;;;34.13;18.45;;;;;;;9.66;89.07;100946.69;4860006;29;20078;-95
2022/12/21 00:42:29;;;;;;;39.88;19.95;;;;;;;9.67;89.03;100954.53;4822971;29;20035;-96
2022/12/21 00:44:59;;;;;;;40.33;21.08;;;;;;;9.66;89.63;100952.81;4822898;29;20056;-95
2022/12/21 00:47:32;;;;;;;39.28;21.55;;;;;;;9.75;89.76;100964.84;4811229;29;20134;-94
2022/12/21 00:49:58;;;;;;;41.72;22.45;;;;;;;9.75;89.91;100971.91;4800679;29;20110;-96
2022/12/21 00:52:28;;;;;;;43.40;21.08;;;;;;;9.63;89.95;100955.56;4803465;29;20034;-95
2022/12/21 00:54:57;;;;;;;45.63;22.33;;;;;;;9.59;89.83;100950.44;4803475;29;20039;-95
2022/12/21 00:57:23;;;;;;;44.35;23.63;;;;;;;9.58;89.84;100944.28;4803895;29;20130;-95
2022/12/21 00:59:51;;;;;;;42.55;21.85;;;;;;;9.56;89.85;100951.41;4818360;29;20038;-95
2022/12/21 01:02:19;;;;;;;39.83;20.90;;;;;;;9.57;89.88;100968.09;4822752;29;20035;-96
2022/12/21 01:04:45;;;;;;;40.42;20.52;;;;;;;9.67;89.57;100986.22;4808594;29;20758;-96
2022/12/21 01:07:12;;;;;;;41.97;21.08;;;;;;;9.56;89.70;100969.88;4823150;29;20124;-95
2022/12/21 01:09:39;;;;;;;41.47;20.85;;;;;;;9.64;89.58;100994.22;4819034;29;20031;-96
2022/12/21 01:12:05;;;;;;;44.53;21.77;;;;;;;9.63;89.57;100984.59;4805293;29;20042;-96
2022/12/21 01:14:31;;;;;;;43.92;21.52;;;;;;;9.63;89.57;100989.88;4797882;29;20026;-96
2022/12/21 01:16:56;;;;;;;41.15;20.77;;;;;;;9.58;89.71;100980.38;4790670;29;20041;-96
2022/12/21 01:19:22;;;;;;;36.97;20.15;;;;;;;9.59;89.69;100976.81;4807035;29;20068;-95
2022/12/21 01:21:47;;;;;;;36.75;20.10;;;;;;;9.74;89.10;101007.13;4833382;29;20021;-95
2022/12/21 01:24:13;;;;;;;35.83;20.30;;;;;;;9.52;88.82;100981.47;4833931;29;20030;-96
2022/12/21 01:26:38;;;;;;;33.75;17.55;;;;;;;9.65;88.90;101000.34;4843893;29;20037;-96
2022/12/21 01:29:04;;;;;;;42.25;21.77;;;;;;;9.44;89.26;100972.94;4845490;29;20034;-95
2022/12/21 01:31:30;;;;;;;38.67;20.05;;;;;;;9.58;89.57;101004.13;4848555;29;20041;-95
2022/12/21 01:33:56;;;;;;;40.63;20.98;;;;;;;9.42;89.43;100973.00;4853627;29;20089;-95
2022/12/21 01:36:25;;;;;;;42.03;21.48;;;;;;;9.55;89.04;101007.72;4848623;29;20187;-95
2022/12/21 01:38:51;;;;;;;36.03;19.95;;;;;;;9.55;89.20;101012.16;4852100;29;20026;-95
2022/12/21 01:41:23;;;;;;;44.55;22.70;;;;;;;9.35;89.76;100987.28;4848576;29;20026;-96
2022/12/21 01:43:54;;;;;;;40.22;20.67;;;;;;;9.32;89.38;100994.44;4848295;29;20520;-96
2022/12/21 01:46:42;;;;;;;41.90;22.20;;;;;;;9.52;89.99;101028.97;4844024;29;20057;-95
2022/12/21 01:49:19;;;;;;;42.25;19.77;;;;;;;9.51;89.54;101036.91;4848297;29;20052;-95
2022/12/21 01:51:50;;;;;;;42.75;19.63;;;;;;;9.41;90.08;101024.00;4850504;29;20124;-96
2022/12/21 01:54:32;;;;;;;40.78;18.67;;;;;;;9.43;90.03;101021.34;4857365;29;20057;-95
2022/12/21 01:57:00;;;;;;;43.75;19.02;;;;;;;9.45;89.77;101016.88;4867314;29;20387;-95
2022/12/21 01:59:31;;;;;;;43.33;20.85;;;;;;;9.34;89.94;100996.13;4854205;29;20058;-95
2022/12/21 02:02:01;;;;;;;42.90;21.17;;;;;;;9.38;89.86;100988.97;4854072;29;20049;-96
2022/12/21 02:04:27;;;;;;;41.08;20.55;;;;;;;9.57;89.57;101013.84;4856652;29;20391;-96
2022/12/21 02:06:57;;;;;;;45.53;22.60;;;;;;;9.44;89.63;101000.19;4858569;29;20038;-96
2022/12/21 02:09:27;;;;;;;67.47;20.75;;;;;;;9.36;89.53;100983.72;4861038;29;20034;-96
2022/12/21 02:11:53;;;;;;;40.75;19.95;;;;;;;9.60;89.59;101026.91;4857478;29;20097;-96
2022/12/21 02:14:18;;;;;;;42.38;20.77;;;;;;;9.56;89.73;101013.88;4853731;29;20061;-96
2022/12/21 02:17:08;;;;;;;43.97;22.30;;;;;;;9.62;89.87;101014.53;4852526;29;20026;-96
2022/12/21 02:19:46;;;;;;;121.43;20.10;;;;;;;9.59;89.12;101025.19;4837556;29;20038;-95
2022/12/21 02:22:37;;;;;;;52.47;19.27;;;;;;;9.34;89.57;100977.66;4852672;29;20038;-96
2022/12/21 02:25:28;;;;;;;40.97;18.20;;;;;;;9.36;89.32;100974.94;4856881;29;20045;-96
2022/12/21 02:28:19;;;;;;;37.15;18.73;;;;;;;9.55;89.46;101001.59;4855069;29;20030;-96
2022/12/21 02:31:30;;;;;;;284.17;24.52;;;;;;;9.66;89.46;101010.88;4856516;29;20104;-95
2022/12/21 02:34:07;;;;;;;183.15;25.75;;;;;;;9.62;89.39;101009.25;4854474;29;20068;-96
2022/12/21 02:36:50;;;;;;;45.90;21.05;;;;;;;9.44;90.02;100988.75;4857239;29;20033;-96
2022/12/21 02:39:21;;;;;;;159.02;21.02;;;;;;;9.57;89.61;101021.75;4856685;29;20068;-96
2022/12/21 02:44:12;;;;;;;166.45;20.83;;;;;;;9.50;89.89;101004.38;4858127;29;20029;-96
2022/12/21 02:45:06;;;;;;;38.15;19.30;;;;;;;9.30;89.78;100973.38;4859427;29;20050;-96
2022/12/21 02:47:41;;;;;;;36.42;18.08;;;;;;;9.25;89.87;100970.03;4860786;29;20025;-96
2022/12/21 02:50:14;;;;;;;209.18;26.15;;;;;;;9.23;89.72;100973.63;4856908;29;20029;-95
2022/12/21 02:52:54;;;;;;;317.55;28.92;;;;;;;9.14;89.50;100966.91;4856351;29;20255;-96
2022/12/21 02:55:19;;;;;;;75.30;18.50;;;;;;;9.15;89.45;100973.88;4861719;29;20029;-95
2022/12/21 02:57:51;;;;;;;125.05;17.70;;;;;;;9.38;89.29;101015.34;4861051;29;20026;-95
2022/12/21 03:01:12;;;;;;;37.40;19.58;;;;;;;9.34;89.85;100995.25;4861147;29;20018;-94
2022/12/21 03:04:20;;;;;;;38.20;18.17;;;;;;;9.47;89.60;101001.88;4862700;29;20038;-96
2022/12/21 03:07:05;;;;;;;38.78;19.63;;;;;;;9.43;89.19;101006.38;4875087;29;20056;-95
2022/12/21 03:10:15;;;;;;;66.22;18.42;;;;;;;9.33;89.35;100991.75;4861658;29;20041;-96
2022/12/21 03:13:11;;;;;;;47.50;21.08;;;;;;;9.25;89.92;100985.00;4833293;29;20045;-96
2022/12/21 03:15:50;;;;;;;40.20;19.67;;;;;;;9.08;89.74;100949.47;4853314;29;20033;-95
2022/12/21 03:18:33;;;;;;;52.70;22.30;;;;;;;9.13;90.07;100962.50;4852394;29;20109;-96
2022/12/21 03:21:13;;;;;;;43.72;20.65;;;;;;;9.15;89.88;100944.88;4853236;29;20029;-96
2022/12/21 03:23:45;;;;;;;43.78;21.70;;;;;;;9.29;89.84;100989.28;4846655;29;20433;-96
2022/12/21 03:26:20;;;;;;;53.47;20.08;;;;;;;9.36;89.74;100999.56;4830809;29;20120;-96
2022/12/21 03:28:48;;;;;;;44.47;21.50;;;;;;;9.25;89.90;100972.66;4841174;29;20035;-96
2022/12/21 03:31:20;;;;;;;44.65;22.90;;;;;;;9.32;89.90;100978.59;4837276;29;20094;-96
2022/12/21 03:33:53;;;;;;;;;;;;;;;9.51;88.92;100995.53;4858632;29;20049;-96
2022/12/21 03:36:25;;;;;;;41.42;20.33;;;;;;;9.43;89.58;100993.19;4845728;29;19992;-95
2022/12/21 03:39:00;;;;;;;51.88;23.88;;;;;;;9.36;89.13;100969.66;4844395;29;20041;-96
2022/12/21 03:41:34;;;;;;;52.28;22.85;;;;;;;9.41;89.44;100976.50;4841855;29;20034;-95
2022/12/21 03:44:04;;;;;;;43.30;20.95;;;;;;;9.31;89.29;100977.75;4854046;29;20623;-95
2022/12/21 03:46:39;;;;;;;44.63;20.92;;;;;;;9.35;89.34;100991.69;4857107;29;20093;-96
2022/12/21 03:49:20;;;;;;;46.13;19.80;;;;;;;9.22;88.95;100987.72;4857633;29;20041;-96
2022/12/21 03:51:56;;;;;;;68.55;24.90;;;;;;;9.02;89.39;100951.44;4858263;29;20205;-96
2022/12/21 03:54:49;;;;;;;48.90;24.30;;;;;;;9.33;89.95;100993.53;4856899;29;20545;-96
2022/12/21 03:57:16;;;;;;;49.25;23.50;;;;;;;9.09;90.03;100951.22;4833540;29;20077;-96
2022/12/21 03:59:46;;;;;;;49.00;24.27;;;;;;;9.20;89.85;100986.00;4858115;29;20502;-96
2022/12/21 04:02:25;;;;;;;53.13;25.98;;;;;;;9.24;90.54;100983.28;4846128;29;20426;-95
2022/12/21 04:05:04;;;;;;;54.97;23.88;;;;;;;9.01;90.56;100937.41;4855909;29;20053;-96
2022/12/21 04:07:32;;;;;;;55.40;26.60;;;;;;;8.99;90.17;100951.53;4857608;29;20057;-96
2022/12/21 04:10:07;;;;;;;56.30;26.13;;;;;;;9.06;90.15;100971.53;4861405;29;20050;-96
2022/12/21 04:12:36;;;;;;;58.13;27.55;;;;;;;9.00;91.12;100953.25;4861716;29;20030;-96
2022/12/21 04:15:12;;;;;;;56.45;24.75;;;;;;;9.28;90.83;100979.59;4853920;29;20042;-96
2022/12/21 04:17:41;;;;;;;59.38;26.02;;;;;;;9.31;91.00;100982.16;4861585;29;20036;-95
2022/12/21 04:20:12;;;;;;;60.95;27.20;;;;;;;9.07;90.42;100946.88;4838770;29;20038;-96
2022/12/21 04:28:28;;;;;;;52.03;23.73;;;;;;;9.28;90.69;100983.13;4852506;29;20045;-96
2022/12/21 04:30:55;;;;;;;49.35;22.98;;;;;;;9.26;89.81;100987.59;4853609;29;20030;-96
2022/12/21 04:33:22;;;;;;;41.97;20.65;;;;;;;8.97;89.56;100941.06;4854794;29;20070;-95
2022/12/21 04:38:41;;;;;;;37.83;18.95;;;;;;;9.20;89.76;100982.50;4855602;29;20056;-96
2022/12/21 04:41:08;;;;;;;;;;;;;;;9.31;89.20;100976.88;4856348;29;20037;-96
2022/12/21 04:43:39;;;;;;;38.60;19.15;;;;;;;9.01;89.08;100945.31;4855142;29;19917;-96
2022/12/21 04:46:14;;;;;;;38.10;17.23;;;;;;;9.04;89.12;100968.94;4855173;29;20064;-96
2022/12/21 04:48:42;;;;;;;36.03;18.60;;;;;;;8.98;89.16;100958.59;4853834;29;20033;-95
2022/12/21 04:51:10;;;;;;;39.63;17.55;;;;;;;8.86;88.78;100941.41;4853603;29;20259;-96
2022/12/21 04:53:36;;;;;;;34.40;16.65;;;;;;;8.96;89.06;100931.41;4863293;29;20035;-96
2022/12/21 04:56:05;;;;;;;36.28;16.95;;;;;;;8.85;88.77;100925.59;4853736;29;20026;-96
2022/12/21 04:58:31;;;;;;;37.42;15.88;;;;;;;9.01;88.93;100947.09;4852038;29;20116;-96
2022/12/21 05:00:57;;;;;;;37.88;16.05;;;;;;;9.04;88.90;100968.06;4842415;29;20121;-96
2022/12/21 05:03:24;;;;;;;29.58;15.02;;;;;;;9.03;88.87;100958.44;4852098;29;20119;-95
2022/12/21 05:05:53;;;;;;;31.73;15.73;;;;;;;8.80;88.83;100936.28;4842225;29;20044;-96
2022/12/21 05:08:19;;;;;;;28.13;14.68;;;;;;;8.96;88.65;100949.03;4858436;29;20048;-96
2022/12/21 05:10:44;;;;;;;32.17;15.13;;;;;;;9.06;88.49;100967.13;4855400;29;20050;-96
2022/12/21 05:13:10;;;;;;;31.98;14.35;;;;;;;8.78;88.60;100921.47;4846317;29;20041;-96
2022/12/21 05:15:37;;;;;;;26.45;13.23;;;;;;;8.83;88.76;100938.00;4850933;29;20029;-95
2022/12/21 05:18:03;;;;;;;30.13;13.82;;;;;;;8.72;88.87;100924.25;4855955;29;20030;-96
2022/12/21 05:20:32;;;;;;;28.17;14.63;;;;;;;8.68;88.61;100929.66;4858070;29;20057;-96
2022/12/21 05:22:58;;;;;;;27.55;13.18;;;;;;;8.84;88.85;100966.06;4850468;29;20041;-96
2022/12/21 05:25:55;;;;;;;30.52;14.15;;;;;;;8.74;88.47;100933.84;4857949;29;20230;-96
2022/12/21 05:28:21;;;;;;;25.38;12.20;;;;;;;8.72;88.50;100926.91;4854562;29;20066;-95
2022/12/21 05:30:47;;;;;;;25.65;12.77;;;;;;;8.74;88.56;100930.38;4855183;29;20049;-96
2022/12/21 05:33:19;;;;;;;27.95;12.88;;;;;;;8.69;88.68;100925.25;4862469;29;20097;-96
2022/12/21 05:35:47;;;;;;;24.02;12.23;;;;;;;8.88;88.99;100951.88;4862389;29;20010;-94
2022/12/21 05:38:15;;;;;;;26.67;13.00;;;;;;;8.70;88.57;100916.41;4869824;29;20077;-96
2022/12/21 05:40:51;;;;;;;25.83;13.07;;;;;;;8.69;88.46;100912.06;4858822;29;20120;-96
2022/12/21 05:43:31;;;;;;;24.52;12.43;;;;;;;8.89;88.62;100954.47;4854484;29;20251;-94
2022/12/21 05:46:05;;;;;;;27.08;12.05;;;;;;;8.66;88.93;100920.91;4851132;29;20098;-94
2022/12/21 05:48:53;;;;;;;21.42;11.88;;;;;;;8.71;88.37;100926.03;4848380;29;20034;-95
2022/12/21 05:51:25;;;;;;;23.75;11.88;;;;;;;8.66;88.40;100931.44;4848443;29;20052;-96
2022/12/21 05:54:08;;;;;;;25.20;11.88;;;;;;;8.63;88.00;100917.53;4843732;29;20089;-96
2022/12/21 05:56:37;;;;;;;;;;;;;;;9.00;87.60;100969.06;4843889;29;20101;-96
2022/12/21 05:59:03;;;;;;;21.63;11.02;;;;;;;8.61;87.75;100917.56;4845059;29;19924;-96
2022/12/21 06:01:52;;;;;;;26.10;12.20;;;;;;;8.74;87.94;100944.41;4841636;29;20030;-95
2022/12/21 06:04:33;;;;;;;23.27;11.70;;;;;;;8.69;87.73;100927.88;4825659;29;20080;-96
2022/12/21 06:07:02;;;;;;;23.95;12.23;;;;;;;8.50;87.78;100901.22;4824244;29;20023;-94
2022/12/21 06:09:46;;;;;;;27.63;11.40;;;;;;;8.49;87.71;100912.69;4821762;29;20102;-95
2022/12/21 06:12:20;;;;;;;22.48;11.57;;;;;;;8.51;87.75;100926.66;4826828;29;20030;-96
2022/12/21 06:14:47;;;;;;;22.60;11.82;;;;;;;8.44;87.21;100909.31;4823861;29;20041;-94
2022/12/21 06:17:23;;;;;;;22.23;11.00;;;;;;;8.45;87.58;100910.19;4825423;29;20030;-96
2022/12/21 06:20:01;;;;;;;19.60;9.45;;;;;;;8.41;87.44;100906.78;4843242;29;20022;-96
2022/12/21 06:22:34;;;;;;;19.70;9.45;;;;;;;8.61;87.67;100958.84;4842976;29;20041;-96
2022/12/21 06:25:11;;;;;;;21.15;9.60;;;;;;;8.51;87.92;100953.00;4853579;29;20038;-94
2022/12/21 06:27:40;;;;;;;16.58;9.07;;;;;;;8.33;87.94;100912.22;4849124;29;20086;-96
2022/12/21 06:30:11;;;;;;;20.00;8.98;;;;;;;8.28;88.05;100903.59;4840257;29;20046;-94
2022/12/21 06:32:39;;;;;;;19.98;9.77;;;;;;;8.31;87.94;100910.56;4858420;29;20056;-96
2022/12/21 06:35:43;;;;;;;19.65;9.82;;;;;;;8.46;87.23;100909.28;4867979;29;20030;-93
2022/12/21 06:38:14;;;;;;;17.58;8.48;;;;;;;8.28;87.40;100916.78;4813468;29;20053;-95
2022/12/21 06:40:43;;;;;;;19.10;9.02;;;;;;;8.48;87.69;100949.59;4845035;29;20057;-96
2022/12/21 06:43:24;;;;;;;15.55;7.88;;;;;;;8.22;87.79;100910.84;4825815;29;20046;-95
2022/12/21 06:46:01;;;;;;;18.83;8.13;;;;;;;8.48;88.07;100958.34;4783807;30;20475;-95
2022/12/21 06:48:44;;;;;;;19.70;7.88;;;;;;;8.49;87.68;100944.28;4792550;30;20071;-94
2022/12/21 06:51:14;;;;;;;;;;;;;;;8.60;87.38;100954.50;4777932;30;20051;-96
2022/12/21 06:53:53;;;;;;;18.25;7.32;;;;;;;8.31;87.83;100926.38;4792430;29;19925;-95
2022/12/21 06:56:46;;;;;;;15.85;6.40;;;;;;;8.23;87.57;100920.44;4796775;30;20056;-96
2022/12/21 06:59:15;;;;;;;16.02;7.10;;;;;;;8.42;87.93;100959.41;4794886;29;20039;-96
2022/12/21 07:01:41;;;;;;;13.60;6.97;;;;;;;8.23;87.79;100928.34;4788764;30;20110;-96
2022/12/21 07:04:07;;;;;;;16.45;6.63;;;;;;;8.22;87.86;100935.41;4791451;30;20039;-96
2022/12/21 07:06:41;;;;;;;14.02;6.50;;;;;;;8.22;87.82;100935.41;4799396;30;20081;-96
2022/12/21 07:09:12;;;;;;;11.82;7.05;;;;;;;8.25;88.70;100940.56;4773161;30;20040;-95
2022/12/21 07:11:39;;;;;;;11.80;6.63;;;;;;;8.23;88.00;100938.88;4763652;30;20048;-95
2022/12/21 07:14:05;;;;;;;14.90;6.35;;;;;;;8.44;87.67;100985.72;4778447;30;20302;-96
2022/12/21 07:16:35;;;;;;;13.23;6.18;;;;;;;8.16;87.44;100941.72;4761102;30;20044;-96
2022/12/21 07:19:01;;;;;;;12.38;5.90;;;;;;;8.27;87.06;100949.28;4759317;30;20028;-96
2022/12/21 07:21:28;;;;;;;12.38;5.55;;;;;;;8.11;87.05;100932.19;4767589;30;20047;-95
2022/12/21 07:24:00;;;;;;;10.70;5.18;;;;;;;8.21;87.30;100951.22;4741587;30;20044;-95
2022/12/21 07:26:28;;;;;;;11.20;5.63;;;;;;;8.31;87.38;100982.53;4771691;30;20078;-96
2022/12/21 07:28:54;;;;;;;12.88;5.13;;;;;;;8.02;87.38;100933.34;4770059;30;20039;-96
2022/12/21 07:31:29;;;;;;;13.40;5.03;;;;;;;8.06;87.12;100947.25;4816603;29;20046;-96
2022/12/21 07:33:59;;;;;;;15.95;5.20;;;;;;;7.99;86.92;100937.81;4827614;29;20087;-96
2022/12/21 07:36:33;;;;;;;11.68;4.82;;;;;;;8.03;87.07;100945.59;4824661;29;20494;-94
2022/12/21 07:39:09;;;;;;;9.85;4.70;;;;;;;8.08;87.24;100948.94;4827396;29;20023;-94
2022/12/21 07:41:38;;;;;;;10.50;4.70;;;;;;;8.08;86.78;100964.75;4837619;29;20065;-96
2022/12/21 07:44:14;;;;;;;11.43;5.15;;;;;;;8.06;86.59;100965.69;4848151;29;20042;-95
2022/12/21 07:46:44;;;;;;;14.70;4.95;;;;;;;8.24;86.54;101003.81;4855739;29;20115;-95
2022/12/21 07:49:09;;;;;;;10.98;3.90;;;;;;;8.10;87.03;100978.72;4845361;29;20029;-93
2022/12/21 07:51:39;;;;;;;12.35;4.70;;;;;;;8.19;86.64;101002.16;4848453;29;20025;-96
2022/12/21 07:54:07;;;;;;;11.70;4.93;;;;;;;8.08;86.85;100974.44;4860911;29;20049;-96
2022/12/21 07:56:34;;;;;;;9.23;4.47;;;;;;;8.09;86.68;100997.22;4842667;29;20018;-95
2022/12/21 07:59:05;;;;;;;14.65;4.80;;;;;;;8.08;86.63;100991.09;4854836;29;20056;-96
2022/12/21 08:01:33;;;;;;;14.02;5.40;;;;;;;8.13;87.08;100986.56;4859685;29;20112;-95
2022/12/21 08:04:00;;;;;;;11.23;4.45;;;;;;;8.12;86.95;100998.00;4860062;29;20079;-95
2022/12/21 09:17:28;;;;;;;23.13;11.18;;;;;;;8.55;87.43;100994.16;708115;23;20478;-96
2022/12/21 09:19:53;;;;;;;25.33;10.77;;;;;;;8.81;87.65;101034.69;4886913;29;20052;-96
2022/12/21 09:22:19;;;;;;;26.20;11.85;;;;;;;8.88;87.66;101030.97;4885855;29;20411;-95
2022/12/21 09:24:44;;;;;;;20.50;10.88;;;;;;;8.98;87.19;101028.94;4886864;29;20044;-94
2022/12/21 09:27:10;;;;;;;28.48;12.77;;;;;;;8.98;87.12;101021.00;4887422;29;20098;-95
2022/12/21 09:29:35;;;;;;;23.05;10.85;;;;;;;8.94;87.07;101017.59;4899041;29;20028;-93
2022/12/21 09:32:01;;;;;;;27.35;12.07;;;;;;;9.04;86.92;101015.53;4884731;29;20389;-96
2022/12/21 09:34:26;;;;;;;24.20;11.63;;;;;;;9.26;87.17;101042.13;4885563;29;20048;-94
2022/12/21 09:36:52;;;;;;;22.90;12.13;;;;;;;9.32;86.79;101040.13;4912797;29;20053;-95
2022/12/21 09:39:18;;;;;;;23.73;12.65;;;;;;;9.26;86.43;101015.75;4896115;29;20032;-95
2022/12/21 09:41:51;;;;;;;20.75;11.57;;;;;;;9.41;85.95;101041.63;4892344;29;20405;-96
2022/12/21 09:44:54;;;;;;;27.25;12.95;;;;;;;9.38;85.99;101047.88;4901107;29;20033;-96
2022/12/21 09:47:55;;;;;;;23.38;10.73;;;;;;;9.25;86.10;100998.19;4903386;29;20036;-96
2022/12/21 09:50:27;;;;;;;27.50;11.75;;;;;;;9.39;85.16;101012.66;4885168;29;20525;-96
2022/12/21 09:53:24;;;;;;;24.50;11.20;;;;;;;9.47;85.14;101033.53;4893787;29;20028;-95
2022/12/21 09:56:00;;;;;;;23.60;11.45;;;;;;;9.32;84.70;101011.13;4909580;29;20389;-96
2022/12/21 09:58:41;;;;;;;22.55;11.25;;;;;;;9.26;84.67;101013.97;4896022;29;20068;-96
2022/12/21 10:01:32;;;;;;;20.95;11.45;;;;;;;9.38;85.24;101026.78;4905874;29;20053;-96
2022/12/21 10:04:10;;;;;;;23.50;11.40;;;;;;;9.62;84.48;101054.13;4884665;29;20040;-96
2022/12/21 10:06:58;;;;;;;25.63;11.32;;;;;;;9.79;84.53;101055.34;4895050;29;20044;-95
2022/12/21 10:09:55;;;;;;;22.92;10.55;;;;;;;9.87;84.49;101054.16;4887326;29;20032;-96
2022/12/21 10:12:30;;;;;;;23.75;11.73;;;;;;;9.84;84.17;101056.03;4890952;29;20029;-96
2022/12/21 10:15:27;;;;;;;21.23;10.93;;;;;;;9.79;84.17;101044.78;4899046;29;20028;-95
2022/12/21 10:18:00;;;;;;;24.63;11.60;;;;;;;9.63;84.63;101036.53;4868439;29;20045;-95
2022/12/21 10:20:56;;;;;;;18.88;10.02;;;;;;;9.67;84.33;101049.56;4872327;29;20030;-94
2022/12/21 10:23:35;;;;;;;18.15;9.43;;;;;;;9.58;83.94;101036.66;4869137;29;20036;-96
2022/12/21 10:26:03;;;;;;;21.17;10.73;;;;;;;9.57;83.82;101052.56;4875199;29;20478;-96
2022/12/21 10:28:53;;;;;;;23.60;10.35;;;;;;;9.49;84.67;101059.88;4885852;29;20012;-94
2022/12/21 10:32:13;;;;;;;;;;;;;;;;;;;;;
2022/12/21 10:34:56;;;;;;;25.98;11.93;;;;;;;9.16;85.06;101012.53;4878184;29;20151;-95
2022/12/21 10:37:25;;;;;;;24.10;10.77;;;;;;;9.11;85.15;100999.50;4855060;29;20010;-95
2022/12/21 10:46:29;;;;;;;20.73;10.20;;;;;;;9.26;85.01;100992.84;5390533;23;20067;-95
2022/12/21 10:52:50;;;;;;;26.27;10.07;;;;;;;9.74;83.74;101012.38;4843402;29;20081;-96
2022/12/21 10:55:50;;;;;;;20.73;9.43;;;;;;;9.70;83.30;100980.84;4806190;29;20031;-95
2022/12/21 10:58:56;;;;;;;21.52;8.95;;;;;;;9.90;83.02;101013.59;4805019;29;20043;-96
2022/12/21 11:04:33;;;;;;;;;;;;;;;10.05;83.24;101010.41;4806748;30;20084;-95
2022/12/21 11:07:44;;;;;;;17.92;9.15;;;;;;;9.91;82.55;100997.69;4811405;29;19916;-96
2022/12/21 11:10:59;;;;;;;22.58;10.02;;;;;;;9.70;83.10;100975.56;4788312;30;20040;-96
2022/12/21 11:18:57;;;;;;;23.98;9.82;;;;;;;9.52;83.00;100968.25;4872673;29;20024;-96
2022/12/21 11:22:29;;;;;;;17.10;10.10;;;;;;;9.51;83.27;100963.88;4864519;29;20037;-96
2022/12/21 11:25:11;;;;;;;22.63;10.82;;;;;;;9.57;83.92;100981.31;4877901;29;20040;-93
2022/12/21 11:27:37;;;;;;;18.58;10.30;;;;;;;9.63;83.61;100984.59;4843209;29;20045;-96
2022/12/21 11:30:08;;;;;;;17.65;10.60;;;;;;;9.76;83.15;101007.94;4836084;29;20490;-93
2022/12/21 11:32:42;;;;;;;21.38;10.25;;;;;;;9.73;83.24;101011.53;4856500;29;20041;-93
2022/12/21 11:35:18;;;;;;;22.83;10.55;;;;;;;9.64;83.73;100999.50;4853624;29;20033;-93
2022/12/21 11:37:46;;;;;;;22.75;9.00;;;;;;;9.76;83.19;101011.44;4852941;29;20474;-94
2022/12/21 11:40:11;;;;;;;20.95;9.57;;;;;;;9.73;83.24;101019.44;4855601;29;20033;-94
2022/12/21 11:42:55;;;;;;;22.20;10.80;;;;;;;9.85;83.42;100999.69;4839387;29;20048;-94
2022/12/21 11:45:25;;;;;;;30.10;10.75;;;;;;;9.78;83.13;100992.91;4840974;29;20036;-93
2022/12/21 11:48:14;;;;;;;20.27;8.25;;;;;;;9.82;83.36;101000.66;4848873;29;20061;-94
2022/12/21 11:51:14;;;;;;;20.67;10.00;;;;;;;9.82;83.53;100999.81;4861233;29;20045;-94
2022/12/21 11:53:55;;;;;;;17.88;10.00;;;;;;;9.77;83.29;100985.91;4845996;29;20058;-93
2022/12/21 11:56:35;;;;;;;23.88;9.57;;;;;;;9.78;83.20;100982.34;4858591;29;20545;-94
2022/12/21 11:59:28;;;;;;;21.40;10.43;;;;;;;9.80;83.22;100986.66;4854370;29;20074;-94
2022/12/21 12:02:23;;;;;;;24.85;11.05;;;;;;;9.81;83.40;100982.25;4846773;29;20483;-93
2022/12/21 12:04:48;;;;;;;21.13;9.93;;;;;;;9.81;83.09;100987.53;4853078;29;20026;-94
2022/12/21 12:07:29;;;;;;;24.58;10.02;;;;;;;9.70;83.29;100988.75;4845486;29;20044;-94
2022/12/21 12:10:13;;;;;;;21.55;9.27;;;;;;;9.68;83.57;100979.16;4863546;29;20067;-93
2022/12/21 12:13:05;;;;;;;25.98;10.73;;;;;;;9.64;83.43;100982.81;4846843;29;20509;-95
2022/12/21 12:15:56;;;;;;;24.85;10.57;;;;;;;9.60;83.72;100984.69;4855157;29;20033;-93
2022/12/21 12:18:30;;;;;;;22.20;9.48;;;;;;;9.64;83.28;100985.44;4843095;29;20060;-94
2022/12/21 12:21:17;;;;;;;22.20;9.20;;;;;;;9.68;83.74;100968.59;4858232;29;20033;-94
2022/12/21 12:23:48;;;;;;;21.15;9.25;;;;;;;9.68;83.70;100971.22;4853410;29;20405;-93
2022/12/21 12:26:34;;;;;;;21.33;9.27;;;;;;;9.70;83.54;100972.91;4854304;29;20505;-94
2022/12/21 12:29:28;;;;;;;19.42;8.80;;;;;;;9.67;83.10;100951.91;4852672;29;20502;-93
2022/12/21 12:32:20;;;;;;;16.00;7.82;;;;;;;9.75;82.89;100961.34;4849624;29;21076;-93
2022/12/21 12:35:16;;;;;;;17.30;7.70;;;;;;;9.81;82.93;100951.41;4852297;29;20176;-95
2022/12/21 12:38:02;;;;;;;16.20;8.02;;;;;;;9.77;82.38;100946.28;4856707;29;20033;-94
2022/12/21 12:40:40;;;;;;;14.60;7.82;;;;;;;9.82;82.26;100950.50;4851158;29;20033;-94
2022/12/21 12:43:32;;;;;;;14.32;7.25;;;;;;;9.88;81.60;100952.91;4847272;29;20065;-93
2022/12/21 12:46:11;;;;;;;17.65;7.65;;;;;;;9.85;81.97;100936.34;4842558;29;20033;-92
2022/12/21 12:48:55;;;;;;;19.63;8.05;;;;;;;9.85;81.86;100934.56;4856281;29;20119;-92
2022/12/21 12:51:31;;;;;;;16.27;7.85;;;;;;;9.87;81.21;100939.75;4841787;29;20094;-93
2022/12/21 12:54:23;;;;;;;15.65;7.15;;;;;;;9.94;80.83;100938.63;4848829;29;20049;-93
2022/12/21 12:57:03;;;;;;;10.93;7.70;;;;;;;9.91;81.62;100936.97;4852441;29;20113;-93
2022/12/21 12:59:42;;;;;;;20.08;7.47;;;;;;;10.00;81.74;100927.84;4853388;29;20398;-94
2022/12/21 13:02:36;;;;;;;19.92;7.90;;;;;;;9.86;81.16;100917.78;4846886;29;20033;-92
2022/12/21 13:05:18;;;;;;;13.18;7.20;;;;;;;9.83;81.43;100919.66;4852728;29;20066;-94
2022/12/21 13:08:09;;;;;;;17.75;7.95;;;;;;;9.93;81.29;100932.50;4845478;29;20034;-93
2022/12/21 13:10:37;;;;;;;12.30;6.57;;;;;;;9.93;81.18;100928.97;4855883;29;20036;-93
2022/12/21 13:13:12;;;;;;;15.10;7.95;;;;;;;9.86;81.41;100912.50;4869350;29;20029;-93
2022/12/21 13:15:55;;;;;;;13.35;6.88;;;;;;;9.93;80.62;100923.69;4853818;29;20029;-94
2022/12/21 13:18:51;;;;;;;17.15;7.88;;;;;;;9.93;80.98;100919.31;4852961;29;20085;-94
2022/12/21 13:21:20;;;;;;;13.70;7.22;;;;;;;9.91;81.53;100917.63;4847281;29;20487;-94
2022/12/21 13:24:02;;;;;;;16.90;7.15;;;;;;;10.22;80.55;100912.06;4859303;29;20036;-92
2022/12/21 13:26:36;;;;;;;12.43;7.10;;;;;;;10.17;80.05;100911.38;4855117;29;20073;-93
2022/12/21 13:29:12;;;;;;;11.80;7.13;;;;;;;10.03;78.46;100887.28;4845006;29;20033;-92
2022/12/21 13:32:04;;;;;;;16.88;7.05;;;;;;;10.27;78.71;100899.59;4843863;29;20029;-93
2022/12/21 13:34:38;;;;;;;15.02;6.55;;;;;;;10.13;78.82;100894.78;4868745;29;20033;-90
2022/12/21 13:37:16;;;;;;;13.88;5.85;;;;;;;10.18;78.40;100903.41;4843840;29;20056;-89
2022/12/21 13:39:46;;;;;;;11.50;5.68;;;;;;;9.99;77.93;100888.28;4845075;29;20098;-90
2022/12/21 13:42:24;;;;;;;12.48;6.68;;;;;;;10.00;79.11;100898.78;4852821;29;20038;-89
2022/12/21 13:44:55;;;;;;;15.05;7.30;;;;;;;9.86;78.87;100890.53;4856902;29;20033;-90